Latest Weather Observations for Weipa

IDQ60801

Issued at 2:05 pm EST Sunday 26 October 2014 (issued every 30 minutes, with the page automatically refreshed every 10 minutes)

About weather observations | Map of weather stations | Latest weather observations for QLD | Other Formats
Station Details ID: 027045 Name: WEIPA AERO Lat: -12.68 Lon: 141.92 Height: 17.96 m
Data from the previous 72 hours. | See also: Recent months at Weipa
Date/Time
EST
Temp
°C
App
Temp
°C
Dew
Point
Rel
Hum
%
Delta-T
°C
Wind Press
QNH
hPa
Press
MSL
hPa
Rain
since 9 am
mm
Dir
 
Spd
km/h
Gust
km/h
Spd
kts
Gust
kts
26/02:00pm 32.3 29.7 12.1 29 11.9 NE 17 24 9 13 1010.7 - 0.0
26/01:30pm 32.0 31.5 12.6 30 11.5 E 7 19 4 10 1011.1 - 0.0
26/01:00pm 31.3 30.3 12.3 31 11.2 NE 9 19 5 10 1011.5 - 0.0
26/12:30pm 31.6 29.6 12.6 31 11.3 E 15 30 8 16 1012.3 - 0.0
26/12:00pm 30.6 30.5 14.0 36 10.0 ENE 7 15 4 8 1012.9 1012.7 0.0
26/11:30am 31.0 28.3 13.6 34 10.5 ESE 20 33 11 18 1013.4 - 0.0
26/11:00am 29.1 27.7 14.5 41 8.8 ESE 15 26 8 14 1013.9 - 0.0
26/10:30am 29.0 26.2 14.4 41 8.8 E 22 37 12 20 1014.3 - 0.0
26/10:00am 28.3 26.3 15.4 45 7.9 E 20 33 11 18 1014.8 - 0.0
26/09:30am 27.4 26.5 16.9 52 6.6 E 17 26 9 14 1015.1 - 0.0
26/09:00am 26.5 24.7 16.9 55 6.0 E 22 33 12 18 1015.2 1015.0 0.0
26/08:30am 26.1 25.6 17.9 60 5.2 ESE 17 24 9 13 1015.2 - 0.0
26/08:00am 24.5 24.7 18.5 69 3.8 SE 15 22 8 12 1015.1 - 0.0
26/07:30am 22.8 24.3 18.1 75 2.9 SSE 7 11 4 6 1014.8 - 0.0
26/07:00am 21.0 23.0 17.8 82 2.0 SE 4 6 2 3 1014.6 - 0.0
26/06:30am 18.6 20.9 16.7 89 1.1 CALM 0 4 0 2 1014.4 - 0.0
26/06:00am 18.4 20.6 16.6 89 1.1 SE 0 0 0 0 1014.1 1013.9 0.0
26/05:30am 18.6 20.5 16.6 88 1.2 ESE 2 2 1 1 1013.8 - 0.0
26/05:00am 18.6 20.8 16.4 87 1.3 CALM 0 2 0 1 1013.6 - 0.0
26/04:30am 18.7 20.7 16.9 89 1.1 SE 2 4 1 2 1013.4 - 0.0
26/04:00am 18.9 20.6 17.1 89 1.1 S 4 6 2 3 1013.3 - 0.0
26/03:30am 19.3 21.7 17.0 86 1.4 CALM 0 0 0 0 1013.4 - 0.0
26/03:00am 19.9 22.2 16.8 82 1.9 CALM 0 0 0 0 1013.5 1013.3 0.0
26/02:30am 20.7 22.8 17.1 80 2.2 E 2 6 1 3 1013.7 - 0.0
26/02:00am 21.7 23.0 17.1 75 2.8 E 6 7 3 4 1013.9 - 0.0
26/01:30am 21.8 22.9 17.0 74 2.9 E 7 9 4 5 1014.2 - 0.0
26/01:00am 22.1 23.1 16.9 72 3.2 ESE 7 9 4 5 1014.4 - 0.0
26/12:30am 22.7 23.3 16.8 69 3.6 E 9 13 5 7 1014.6 - 0.0
26/12:00am 23.2 24.2 16.8 67 3.9 E 7 11 4 6 1014.9 1014.7 0.0
 
Date/Time
EST
Temp
°C
App
Temp
°C
Dew
Point
Rel
Hum
%
Delta-T
°C
Wind Press
QNH
hPa
Press
MSL
hPa
Rain
since 9 am
mm
Dir
 
Spd
km/h
Gust
km/h
Spd
kts
Gust
kts
25/11:30pm 23.9 23.6 16.5 63 4.5 E 13 19 7 10 1015.3 - 0.0
25/11:00pm 24.3 23.1 16.2 60 4.9 E 17 26 9 14 1015.5 - 0.0
25/10:30pm 24.6 23.5 16.3 60 5.1 E 17 24 9 13 1015.5 - 0.0
25/10:00pm 25.0 23.4 16.4 59 5.3 ESE 20 30 11 16 1015.3 - 0.0
25/09:30pm 25.3 23.6 16.3 57 5.5 ESE 20 33 11 18 1014.9 - 0.0
25/09:00pm 25.8 24.5 15.9 54 6.0 E 17 26 9 14 1014.6 1014.4 0.0
25/08:30pm 26.7 25.8 14.9 48 7.1 E 13 20 7 11 1014.3 - 0.0
25/08:00pm 27.4 26.1 14.8 46 7.6 E 15 22 8 12 1013.9 - 0.0
25/07:30pm 27.9 26.3 15.1 45 7.8 E 17 24 9 13 1013.5 - 0.0
25/07:00pm 28.4 26.9 15.3 45 8.0 E 17 26 9 14 1012.9 - 0.0
25/06:30pm 29.2 27.7 15.4 43 8.5 ESE 17 30 9 16 1012.5 - 0.0
25/06:00pm 30.0 26.3 15.0 40 9.2 ESE 28 41 15 22 1012.1 1011.9 0.0
25/05:55pm 30.4 26.6 14.6 38 9.6 ESE 28 41 15 22 1011.9 - 0.0
25/05:30pm 31.0 30.8 15.6 39 9.5 E 11 20 6 11 1011.3 - 0.0
25/05:00pm 31.1 29.2 15.2 38 9.8 E 19 30 10 16 1011.0 - 0.0
25/04:30pm 32.0 30.4 15.0 35 10.5 ESE 17 26 9 14 1010.8 - 0.0
25/04:00pm 32.5 30.5 15.0 34 10.8 SE 19 28 10 15 1010.9 - 0.0
25/03:30pm 33.2 31.1 15.1 33 11.2 ESE 20 35 11 19 1011.0 - 0.0
25/03:00pm 32.8 30.3 15.1 34 11.0 ESE 22 37 12 20 1011.1 1010.9 0.0
25/02:30pm 33.1 30.0 14.6 32 11.4 SE 24 35 13 19 1011.3 - 0.0
25/02:00pm 32.5 30.0 14.2 33 11.2 E 20 33 11 18 1011.6 - 0.0
25/01:30pm 32.3 29.6 15.5 36 10.4 SE 24 37 13 20 1011.8 - 0.0
25/01:00pm 32.4 30.2 14.4 33 11.0 E 19 35 10 19 1012.1 - 0.0
25/12:30pm 32.2 29.7 14.2 33 11.0 ESE 20 32 11 17 1012.5 - 0.0
25/12:00pm 31.2 28.8 14.4 36 10.2 ESE 20 33 11 18 1013.1 1012.9 0.0
25/11:30am 31.4 29.0 15.3 37 9.9 E 22 33 12 18 1013.9 - 0.0
25/11:00am 30.6 29.0 16.0 41 9.1 ESE 19 32 10 17 1014.4 - 0.0
25/10:30am 29.6 28.0 16.6 45 8.1 ESE 20 32 11 17 1014.9 - 0.0
25/10:00am 28.9 26.5 16.4 46 7.8 ESE 24 35 13 19 1015.3 - 0.0
25/09:30am 28.5 26.6 16.6 48 7.4 ESE 22 32 12 17 1015.4 - 0.0
25/09:00am 27.3 24.9 16.5 51 6.7 SE 24 35 13 19 1015.8 1015.6 0.0
25/08:30am 26.4 24.5 16.8 55 6.0 SE 22 32 12 17 1015.7 - 0.0
25/08:00am 25.0 23.7 16.7 60 5.1 SE 19 33 10 18 1015.7 - 0.0
25/07:30am 24.1 23.5 16.6 63 4.6 SE 15 24 8 13 1015.5 - 0.0
25/07:00am 23.2 23.8 16.8 67 3.9 SE 9 17 5 9 1015.1 - 0.0
25/06:30am 22.1 23.2 17.1 73 3.1 SE 7 11 4 6 1014.8 - 0.0
25/06:00am 21.9 22.6 17.0 73 3.0 SE 9 15 5 8 1014.4 1014.2 0.0
25/05:30am 22.0 22.7 17.0 73 3.1 SE 9 15 5 8 1014.2 - 0.0
25/05:00am 22.1 22.4 17.1 73 3.1 SE 11 19 6 10 1014.0 - 0.0
25/04:30am 22.2 22.5 17.0 72 3.2 SE 11 19 6 10 1013.8 - 0.0
25/04:00am 22.1 21.9 16.8 72 3.2 SE 13 19 7 10 1013.8 - 0.0
25/03:30am 22.4 21.4 16.7 70 3.5 ESE 17 24 9 13 1013.7 - 0.0
25/03:00am 22.5 21.5 16.7 69 3.5 E 17 24 9 13 1013.8 1013.6 0.0
25/02:30am 21.8 22.1 16.9 73 3.0 ESE 11 15 6 8 1014.1 - 0.0
25/02:00am 22.1 22.9 17.2 74 3.0 E 9 13 5 7 1014.5 - 0.0
25/01:30am 22.5 22.8 17.1 71 3.3 E 11 15 6 8 1014.4 - 0.0
25/01:00am 22.9 22.4 17.0 69 3.6 E 15 24 8 13 1014.7 - 0.0
25/12:30am 23.2 22.3 16.9 67 3.9 E 17 22 9 12 1014.9 - 0.0
25/12:00am 23.4 23.1 16.5 65 4.2 E 13 22 7 12 1015.2 1015.0 0.0
 
Date/Time
EST
Temp
°C
App
Temp
°C
Dew
Point
Rel
Hum
%
Delta-T
°C
Wind Press
QNH
hPa
Press
MSL
hPa
Rain
since 9 am
mm
Dir
 
Spd
km/h
Gust
km/h
Spd
kts
Gust
kts
24/11:30pm 23.8 23.4 16.2 62 4.6 E 13 20 7 11 1015.2 - 0.0
24/11:00pm 24.1 23.2 15.8 59 5.0 E 15 19 8 10 1015.6 - 0.0
24/10:30pm 24.5 22.6 15.3 56 5.5 E 19 32 10 17 1015.6 - 0.0
24/10:00pm 25.0 22.8 14.5 52 6.2 E 19 30 10 16 1015.4 - 0.0
24/09:30pm 25.4 23.4 13.8 48 6.8 E 17 22 9 12 1015.0 - 0.0
24/09:00pm 25.9 22.8 13.3 45 7.4 E 22 37 12 20 1014.6 1014.4 0.0
24/08:30pm 26.4 23.6 12.6 42 8.0 ESE 19 26 10 14 1014.0 - 0.0
24/08:00pm 27.0 24.5 12.3 40 8.5 E 17 26 9 14 1013.4 - 0.0
24/07:30pm 27.7 23.6 11.4 36 9.3 E 24 37 13 20 1013.1 - 0.0
24/07:00pm 28.4 24.2 9.6 31 10.5 E 22 33 12 18 1012.6 - 0.0
24/06:30pm 29.5 24.7 8.7 27 11.5 E 24 35 13 19 1012.0 - 0.0
24/06:00pm 31.0 26.7 9.4 26 12.2 E 22 32 12 17 1011.3 1011.1 0.0
24/05:30pm 32.1 27.9 7.3 21 13.6 E 19 30 10 16 1010.7 - 0.0
24/05:00pm 33.2 29.2 6.5 19 14.5 E 17 24 9 13 1010.2 - 0.0
24/04:30pm 33.9 29.2 5.9 17 15.1 E 20 30 11 16 1010.0 - 0.0
24/04:00pm 34.1 29.4 5.3 16 15.4 E 19 24 10 13 1009.8 - 0.0
24/03:30pm 34.1 29.7 6.6 18 15.0 SE 19 26 10 14 1010.0 - 0.0
24/03:00pm 34.4 29.9 6.8 18 15.2 ESE 20 32 11 17 1010.0 1009.8 0.0
24/02:30pm 34.4 30.3 6.0 17 15.4 E 17 32 9 17 1010.3 - 0.0
24/02:00pm 34.1 30.4 8.0 20 14.6 E 17 32 9 17 1010.8 - 0.0
24/01:30pm 34.6 30.5 8.5 20 14.7 E 20 32 11 17 1011.3 - 0.0
24/01:00pm 33.6 30.3 9.4 22 13.8 SE 17 33 9 18 1011.9 - 0.0
24/12:30pm 33.3 29.5 9.9 23 13.4 E 20 37 11 20 1012.8 - 0.0
24/12:00pm 33.8 30.7 12.1 26 12.9 E 20 33 11 18 1013.3 1013.1 0.0
24/11:30am 31.9 28.0 12.0 29 11.7 E 24 30 13 16 1013.9 - 0.0
24/11:00am 31.6 28.2 12.4 31 11.4 SE 22 37 12 20 1014.4 - 0.0
24/10:30am 30.3 26.5 13.6 36 10.0 E 26 37 14 20 1015.0 - 0.0
24/10:00am 29.7 26.9 15.3 41 8.8 ESE 24 33 13 18 1015.6 - 0.0
24/09:30am 28.2 25.0 15.2 45 7.9 ESE 26 35 14 19 1015.9 - 0.0
24/09:00am 27.0 25.6 16.5 52 6.5 ESE 19 30 10 16 1016.1 1015.9 0.0
24/08:30am 26.1 24.8 16.8 56 5.8 ESE 19 26 10 14 1016.1 - 0.0
24/08:00am 24.7 24.7 17.2 63 4.7 ESE 13 24 7 13 1016.1 - 0.0
24/07:30am 22.6 23.9 17.5 73 3.2 SSE 7 13 4 7 1015.8 - 0.0
24/07:00am 21.0 22.5 17.6 81 2.1 SSE 6 7 3 4 1015.4 - 0.0
24/06:30am 18.9 20.8 16.7 87 1.3 S 2 4 1 2 1015.2 - 0.0
24/06:00am 18.4 19.8 16.4 88 1.2 ESE 4 6 2 3 1014.7 1014.5 0.0
24/05:30am 18.2 19.8 16.0 87 1.3 ESE 2 2 1 1 1014.4 - 0.0
24/05:00am 18.1 20.0 15.8 86 1.4 CALM 0 2 0 1 1013.9 - 0.0
24/04:30am 18.6 20.6 16.0 85 1.5 CALM 0 4 0 2 1013.6 - 0.0
24/04:00am 18.7 20.7 16.0 84 1.6 CALM 0 0 0 0 1013.6 - 0.0
24/03:30am 18.7 20.7 15.9 84 1.7 CALM 0 0 0 0 1013.5 - 0.0
24/03:00am 19.3 21.1 16.4 83 1.7 S 2 4 1 2 1013.4 1013.2 0.0
24/02:30am 19.7 21.9 16.4 81 2.0 CALM 0 2 0 1 1013.7 - 0.0
24/02:00am 20.2 22.3 16.2 78 2.4 CALM 0 2 0 1 1013.8 - 0.0
24/01:30am 20.6 22.1 15.7 73 2.9 SSE 2 4 1 2 1014.2 - 0.0
24/01:00am 21.3 22.4 15.5 69 3.5 ESE 4 6 2 3 1014.5 - 0.0
24/12:30am 22.2 23.2 15.4 65 4.1 E 4 6 2 3 1014.9 - 0.0
24/12:00am 22.4 22.7 14.5 61 4.6 E 6 7 3 4 1015.2 1015.0 0.0
 
Date/Time
EST
Temp
°C
App
Temp
°C
Dew
Point
Rel
Hum
%
Delta-T
°C
Wind Press
QNH
hPa
Press
MSL
hPa
Rain
since 9 am
mm
Dir
 
Spd
km/h
Gust
km/h
Spd
kts
Gust
kts
23/11:30pm 22.5 22.5 13.7 57 5.1 ESE 6 6 3 3 1015.4 - 0.0
23/11:00pm 23.7 23.4 13.4 52 6.0 E 7 11 4 6 1015.4 - 0.0
23/10:30pm 23.9 23.4 12.7 49 6.4 ESE 7 11 4 6 1015.5 - 0.0
23/10:00pm 24.7 23.6 12.0 45 7.2 ESE 9 17 5 9 1015.4 - 0.0
23/09:30pm 25.5 22.9 10.7 39 8.3 E 15 26 8 14 1015.0 - 0.0
23/09:00pm 25.9 22.8 10.3 37 8.7 E 17 28 9 15 1014.7 1014.5 0.0
23/08:30pm 26.3 24.5 11.0 38 8.6 E 11 19 6 10 1014.3 - 0.0
23/08:00pm 27.0 24.5 11.2 37 9.0 E 15 22 8 12 1014.0 - 0.0
23/07:30pm 27.9 24.6 11.7 36 9.3 E 20 33 11 18 1013.4 - 0.0
23/07:00pm 28.6 25.8 12.7 37 9.3 E 19 32 10 17 1013.0 - 0.0
23/06:30pm 28.4 29.7 19.4 58 5.8 NNE 11 24 6 13 1012.4 - 0.0
23/06:00pm 30.2 28.4 13.3 35 10.1 E 15 24 8 13 1011.6 1011.4 0.0
23/05:30pm 30.9 28.0 13.0 33 10.7 E 20 39 11 21 1011.0 - 0.0
23/05:00pm 31.7 30.2 13.2 32 11.1 E 13 22 7 12 1010.4 - 0.0
23/04:30pm 32.7 29.9 12.7 29 11.9 E 19 33 10 18 1010.2 - 0.0
23/04:00pm 33.7 30.7 12.1 27 12.8 ENE 19 28 10 15 1010.0 - 0.0
23/03:30pm 33.5 31.6 11.7 26 12.9 E 13 30 7 16 1010.0 - 0.0
23/03:00pm 33.7 31.1 10.7 24 13.4 ENE 15 24 8 13 1010.1 1009.9 0.0
23/02:30pm 34.5 30.8 9.5 21 14.3 ESE 19 30 10 16 1010.3 - 0.0

Other Formats:

Comma delimited format used in spreadsheet applications
http://www.bom.gov.au/fwo/IDQ60801/IDQ60801.94170.axf

JavaScript Object Notation format (JSON) in row-major order
http://www.bom.gov.au/fwo/IDQ60801/IDQ60801.94170.json